Mayville, Oregon
Current Conditions -  °F | °C
As of 10:35 AM on Saturday 25 Oct 2014 (Local Time) from KS39 Reporting Station
Clear Clear  
Wind Chill: 61°   Ceiling: Unl
Heat Index: 61°   Visibility: 10mi
Dew Point: 41°   Wind: 22mph
Humidity: 48%   Direction: 160°SSE
Pressure: 29.59"   Gusts: 36mph
Location:  44.9464°N, 120.192°W
Report Text: KS39 251735Z AUTO 16019G31KT 10SM CLR 16/05 A2959 RMK AO2
Loading
Personal Weather Stations






























Interactive Weather Map
Tropical Storm Tracking
New forecast layout! Learn more

10-Day Weather Forecast

Advertisements
Track Severe Weather on mobile